createdAt,value
2022-12-01T00:01:30.715Z,23.75
2022-12-01T00:03:58.837Z,33.25
2022-12-01T00:06:27.017Z,30.75
2022-12-01T00:09:17.971Z,32.95
2022-12-01T00:11:49.598Z,28.75
2022-12-01T00:14:17.668Z,24.35
2022-12-01T00:16:45.906Z,21.27
2022-12-01T00:19:14.201Z,23.38
2022-12-01T00:21:42.656Z,31.92
2022-12-01T00:24:12.066Z,23.83
2022-12-01T00:26:40.747Z,30.33
2022-12-01T00:29:10.373Z,25.67
2022-12-01T00:31:39.044Z,28.17
2022-12-01T00:34:11.235Z,27.85
2022-12-01T00:36:40.582Z,22.10
2022-12-01T00:39:08.789Z,24.15
2022-12-01T00:41:36.824Z,24.10
2022-12-01T00:44:05.023Z,22.60
2022-12-01T00:46:34.428Z,21.98
2022-12-01T00:49:02.751Z,23.52
2022-12-01T00:51:30.827Z,26.55
2022-12-01T00:53:59.188Z,21.88
2022-12-01T00:56:27.475Z,23.75
2022-12-01T00:58:55.436Z,20.17
2022-12-01T01:01:23.758Z,21.10
2022-12-01T01:03:53.742Z,23.15
2022-12-01T01:06:21.722Z,22.42
2022-12-01T01:08:50.128Z,22.15
2022-12-01T01:11:18.131Z,23.70
2022-12-01T01:13:46.163Z,23.17
2022-12-01T01:16:17.217Z,18.40
2022-12-01T01:18:45.476Z,22.92
2022-12-01T01:21:17.671Z,22.23
2022-12-01T01:23:46.086Z,20.77
2022-12-01T01:26:20.521Z,20.85
2022-12-01T01:28:49.434Z,22.75
2022-12-01T01:31:19.278Z,24.25
2022-12-01T01:33:47.659Z,20.77
2022-12-01T01:36:18.590Z,19.42
2022-12-01T01:38:47.263Z,22.60
2022-12-01T01:41:15.874Z,21.35
2022-12-01T01:43:46.826Z,24.00
2022-12-01T01:46:17.981Z,23.67
2022-12-01T01:48:49.273Z,22.70
2022-12-01T01:51:21.004Z,24.52
2022-12-01T01:53:50.213Z,22.85
2022-12-01T01:56:18.351Z,26.58
2022-12-01T01:58:46.635Z,24.02
2022-12-01T02:01:15.147Z,25.02
2022-12-01T02:03:43.725Z,25.27
2022-12-01T02:06:14.048Z,22.38
2022-12-01T02:08:43.392Z,21.25
2022-12-01T02:11:48.611Z,23.23
2022-12-01T02:14:34.760Z,24.17
2022-12-01T02:17:12.808Z,26.42
2022-12-01T02:20:05.394Z,18.58
2022-12-01T02:22:50.702Z,21.38
2022-12-01T02:25:29.732Z,16.52
2022-12-01T02:28:40.954Z,20.88
2022-12-01T02:31:16.321Z,19.88
2022-12-01T02:33:53.820Z,15.80
2022-12-01T02:36:28.492Z,19.95
2022-12-01T02:39:07.429Z,22.08
2022-12-01T02:41:41.180Z,21.70
2022-12-01T02:44:18.381Z,17.30
2022-12-01T02:46:52.418Z,23.98
2022-12-01T02:49:25.340Z,16.60
2022-12-01T02:51:55.618Z,19.30
2022-12-01T02:54:24.524Z,18.83
2022-12-01T02:56:53.918Z,18.33
2022-12-01T02:59:21.948Z,17.30
2022-12-01T03:02:05.790Z,21.63
2022-12-01T03:04:47.378Z,20.45
2022-12-01T03:07:40.808Z,21.55
2022-12-01T03:10:18.239Z,19.35
2022-12-01T03:12:59.310Z,17.08
2022-12-01T03:15:33.961Z,20.83
2022-12-01T03:18:11.166Z,19.17
2022-12-01T03:20:43.952Z,20.58
2022-12-01T03:23:16.714Z,18.88
2022-12-01T03:25:49.572Z,17.42
2022-12-01T03:28:22.374Z,16.45
2022-12-01T03:30:53.838Z,18.60
2022-12-01T03:33:29.109Z,22.40
2022-12-01T03:36:03.075Z,16.90
2022-12-01T03:38:32.289Z,18.75
2022-12-01T03:41:05.410Z,16.75
2022-12-01T03:43:38.238Z,16.15
2022-12-01T03:46:11.198Z,16.13
2022-12-01T03:48:41.579Z,13.57
2022-12-01T03:51:15.921Z,17.95
2022-12-01T03:53:52.748Z,16.17
2022-12-01T03:56:24.604Z,16.70
2022-12-01T03:58:57.559Z,15.93
2022-12-01T04:01:27.060Z,16.30
2022-12-01T04:03:56.829Z,13.75
2022-12-01T04:06:24.877Z,13.90
2022-12-01T04:08:52.929Z,17.45
2022-12-01T04:11:38.323Z,19.88
2022-12-01T04:14:06.594Z,16.92
2022-12-01T04:16:34.643Z,21.15
2022-12-01T04:19:04.071Z,17.45
2022-12-01T04:21:32.324Z,17.65
2022-12-01T04:24:03.499Z,16.98
2022-12-01T04:26:34.537Z,17.77
2022-12-01T04:29:03.251Z,20.80
2022-12-01T04:31:31.479Z,18.90
2022-12-01T04:34:00.767Z,17.52
2022-12-01T04:36:32.696Z,12.95
2022-12-01T04:39:01.030Z,16.25
2022-12-01T04:41:29.463Z,19.73
2022-12-01T04:43:58.216Z,17.25
2022-12-01T04:46:26.526Z,16.45
2022-12-01T04:48:54.676Z,19.30
2022-12-01T04:51:23.213Z,15.00
2022-12-01T04:53:52.619Z,17.48
2022-12-01T04:56:20.816Z,15.85
2022-12-01T04:58:48.929Z,17.77
2022-12-01T05:01:19.456Z,17.60
2022-12-01T05:03:50.212Z,15.30
2022-12-01T05:06:20.183Z,15.65
2022-12-01T05:08:48.566Z,16.92
2022-12-01T05:11:19.290Z,15.80
2022-12-01T05:13:49.131Z,14.68
2022-12-01T05:16:19.512Z,15.35
2022-12-01T05:18:50.407Z,16.40
2022-12-01T05:21:18.238Z,18.90
2022-12-01T05:23:46.908Z,18.33
2022-12-01T05:26:14.896Z,18.00
2022-12-01T05:28:44.358Z,18.00
2022-12-01T05:31:13.292Z,22.02
2022-12-01T05:33:42.725Z,17.65
2022-12-01T05:36:11.153Z,11.27
2022-12-01T05:38:39.261Z,19.15
2022-12-01T05:41:07.388Z,18.98
2022-12-01T05:43:35.399Z,17.58
2022-12-01T05:46:05.387Z,17.42
2022-12-01T05:48:33.545Z,18.42
2022-12-01T05:51:01.545Z,19.00
2022-12-01T05:53:29.908Z,18.73
2022-12-01T05:55:57.930Z,16.85
2022-12-01T05:58:25.975Z,16.60
2022-12-01T06:00:53.985Z,18.58
2022-12-01T06:03:23.656Z,23.15
2022-12-01T06:05:51.694Z,21.70
2022-12-01T06:08:19.730Z,14.75
2022-12-01T06:10:48.164Z,14.70
2022-12-01T06:13:16.317Z,21.73
2022-12-01T06:15:44.590Z,19.55
2022-12-01T06:18:12.996Z,17.13
2022-12-01T06:20:42.668Z,18.60
2022-12-01T06:23:10.651Z,19.48
2022-12-01T06:25:39.159Z,17.88
2022-12-01T06:28:07.148Z,24.33
2022-12-01T06:30:35.137Z,17.73
2022-12-01T06:33:03.472Z,22.77
2022-12-01T06:35:31.736Z,20.70
2022-12-01T06:38:01.116Z,20.50
2022-12-01T06:40:29.405Z,19.45
2022-12-01T06:43:01.355Z,21.45
2022-12-01T06:45:30.000Z,19.05
2022-12-01T06:47:58.744Z,19.63
2022-12-01T06:50:28.014Z,20.73
2022-12-01T06:52:59.079Z,15.63
2022-12-01T06:55:28.771Z,19.83
2022-12-01T06:57:56.966Z,19.90
2022-12-01T07:00:25.321Z,23.75
2022-12-01T07:02:53.651Z,18.55
2022-12-01T07:05:21.877Z,18.77
2022-12-01T07:07:52.731Z,18.23
2022-12-01T07:10:24.700Z,21.80
2022-12-01T07:12:54.152Z,18.52
2022-12-01T07:15:23.871Z,17.52
2022-12-01T07:17:52.333Z,21.40
2022-12-01T07:20:20.297Z,17.40
2022-12-01T07:22:48.305Z,15.55
2022-12-01T07:25:16.610Z,20.52
2022-12-01T07:27:44.622Z,20.42
2022-12-01T07:30:14.661Z,21.08
2022-12-01T07:32:42.632Z,21.40
2022-12-01T07:35:11.290Z,15.20
2022-12-01T07:37:39.350Z,17.02
2022-12-01T07:40:10.342Z,16.98
2022-12-01T07:42:41.565Z,23.13
2022-12-01T07:45:10.179Z,16.77
2022-12-01T07:47:39.968Z,17.15
2022-12-01T07:50:08.980Z,18.92
2022-12-01T07:52:37.114Z,15.85
2022-12-01T07:55:05.820Z,16.73
2022-12-01T07:57:33.808Z,15.85
2022-12-01T08:00:01.874Z,14.25
2022-12-01T08:02:29.987Z,16.20
2022-12-01T08:04:59.701Z,15.18
2022-12-01T08:07:30.019Z,13.80
2022-12-01T08:09:58.202Z,16.80
2022-12-01T08:12:26.208Z,17.10
2022-12-01T08:14:54.192Z,15.52
2022-12-01T08:17:22.369Z,14.93
2022-12-01T08:19:50.782Z,15.18
2022-12-01T08:22:20.334Z,16.20
2022-12-01T08:24:48.602Z,14.57
2022-12-01T08:27:16.890Z,15.77
2022-12-01T08:29:44.846Z,15.23
2022-12-01T08:32:12.871Z,13.65
2022-12-01T08:34:41.489Z,12.77
2022-12-01T08:37:10.071Z,14.15
2022-12-01T08:39:39.475Z,15.30
2022-12-01T08:42:07.492Z,15.32
2022-12-01T08:44:35.590Z,16.90
2022-12-01T08:47:03.678Z,18.75
2022-12-01T08:49:31.728Z,15.63
2022-12-01T08:51:59.714Z,14.98
2022-12-01T08:54:27.748Z,16.38
2022-12-01T08:56:57.164Z,16.00
2022-12-01T08:59:25.425Z,15.75
2022-12-01T09:01:53.537Z,24.40
2022-12-01T09:04:23.520Z,20.10
2022-12-01T09:06:53.459Z,15.48
2022-12-01T09:09:24.636Z,15.88
2022-12-01T09:11:53.407Z,15.73
2022-12-01T09:14:23.777Z,17.83
2022-12-01T09:16:52.176Z,16.67
2022-12-01T09:19:24.761Z,17.40
2022-12-01T09:21:53.637Z,15.73
2022-12-01T09:24:21.896Z,18.35
2022-12-01T09:26:50.494Z,15.98
2022-12-01T09:29:18.856Z,17.25
2022-12-01T09:31:48.468Z,16.50
2022-12-01T09:34:18.389Z,15.05
2022-12-01T09:36:47.213Z,17.58
2022-12-01T09:39:17.429Z,18.73
2022-12-01T09:41:48.038Z,19.23
2022-12-01T09:44:24.444Z,19.75
2022-12-01T09:46:58.533Z,20.35
2022-12-01T09:49:35.654Z,17.55
2022-12-01T09:52:03.623Z,17.92
2022-12-01T09:54:31.617Z,18.08
2022-12-01T09:57:00.348Z,16.48
2022-12-01T09:59:33.785Z,21.63
2022-12-01T10:02:07.779Z,14.40
2022-12-01T10:04:40.913Z,16.08
2022-12-01T10:07:18.928Z,18.63
2022-12-01T10:09:56.946Z,17.40
2022-12-01T10:12:28.779Z,18.13
2022-12-01T10:15:07.398Z,16.45
2022-12-01T10:17:46.568Z,18.80
2022-12-01T10:20:20.361Z,17.98
2022-12-01T10:23:16.292Z,18.58
2022-12-01T10:25:57.343Z,18.92
2022-12-01T10:28:45.133Z,22.88
2022-12-01T10:31:20.711Z,17.70
2022-12-01T10:34:04.120Z,14.23
2022-12-01T10:36:34.418Z,14.98
2022-12-01T10:39:03.414Z,15.65
2022-12-01T10:41:35.372Z,15.52
2022-12-01T10:44:05.816Z,17.15
2022-12-01T10:46:40.699Z,17.98
2022-12-01T10:49:12.451Z,17.25
2022-12-01T10:51:53.419Z,20.90
2022-12-01T10:54:22.403Z,19.40
2022-12-01T10:56:56.115Z,16.27
2022-12-01T10:59:28.550Z,14.90
2022-12-01T11:01:58.345Z,16.55
2022-12-01T11:04:37.255Z,16.98
2022-12-01T11:07:05.921Z,25.90
2022-12-01T11:09:34.141Z,17.13
2022-12-01T11:12:04.127Z,18.23
2022-12-01T11:14:42.092Z,18.25
2022-12-01T11:17:24.724Z,17.75
2022-12-01T11:19:54.482Z,16.35
2022-12-01T11:22:25.038Z,17.38
2022-12-01T11:25:05.298Z,18.77
2022-12-01T11:27:36.065Z,20.77
2022-12-01T11:30:08.001Z,18.35
2022-12-01T11:32:40.157Z,18.52
2022-12-01T11:35:19.373Z,17.52
2022-12-01T11:38:21.159Z,17.67
2022-12-01T11:40:50.081Z,16.95
2022-12-01T11:43:26.335Z,18.17
2022-12-01T11:45:55.800Z,15.77
2022-12-01T11:48:26.746Z,17.48
2022-12-01T11:51:08.993Z,17.88
2022-12-01T11:53:38.912Z,22.10
2022-12-01T11:56:18.910Z,22.13
2022-12-01T11:58:49.009Z,19.70
2022-12-01T12:01:24.905Z,19.30
2022-12-01T12:04:03.171Z,17.20
2022-12-01T12:06:40.705Z,17.67
2022-12-01T12:09:26.989Z,19.80
2022-12-01T12:12:04.026Z,16.63
2022-12-01T12:14:42.038Z,21.70
2022-12-01T12:17:21.117Z,14.52
2022-12-01T12:20:13.127Z,18.80
2022-12-01T12:22:55.458Z,17.83
2022-12-01T12:25:31.196Z,19.45
2022-12-01T12:28:14.165Z,18.08
2022-12-01T12:30:50.212Z,17.30
2022-12-01T12:33:49.144Z,19.77
2022-12-01T12:36:26.640Z,17.65
2022-12-01T12:39:08.189Z,21.30
2022-12-01T12:41:44.535Z,22.30
2022-12-01T12:44:37.046Z,16.23
2022-12-01T12:47:17.710Z,18.83
2022-12-01T12:49:54.893Z,15.98
2022-12-01T12:52:26.518Z,19.00
2022-12-01T12:55:01.478Z,19.60
2022-12-01T12:57:34.063Z,15.93
2022-12-01T13:00:05.594Z,18.25
2022-12-01T13:02:40.395Z,21.60
2022-12-01T13:05:13.949Z,22.15
2022-12-01T13:07:47.705Z,19.50
2022-12-01T13:10:26.805Z,21.20
2022-12-01T13:12:59.944Z,18.88
2022-12-01T13:15:30.918Z,21.45
2022-12-01T13:18:03.774Z,17.80
2022-12-01T13:20:34.531Z,18.58
2022-12-01T13:23:03.820Z,19.33
2022-12-01T13:25:39.900Z,22.02
2022-12-01T13:28:16.199Z,20.38
2022-12-01T13:30:59.917Z,21.27
2022-12-01T13:33:28.334Z,19.10
2022-12-01T13:36:30.004Z,24.67
2022-12-01T13:38:54.296Z,15.77
2022-12-01T13:41:29.435Z,23.23
2022-12-01T13:44:05.976Z,17.38
2022-12-01T13:46:52.810Z,19.27
2022-12-01T13:49:42.179Z,21.23
2022-12-01T13:52:34.304Z,22.75
2022-12-01T13:55:18.836Z,21.35
2022-12-01T13:57:50.963Z,21.33
2022-12-01T14:00:25.374Z,19.27
2022-12-01T14:03:27.073Z,19.35
2022-12-01T14:06:08.849Z,19.90
2022-12-01T14:08:38.780Z,20.73
2022-12-01T14:11:09.401Z,20.83
2022-12-01T14:13:51.675Z,20.13
2022-12-01T14:16:19.858Z,19.35
2022-12-01T14:18:53.125Z,17.80
2022-12-01T14:21:43.404Z,18.58
2022-12-01T14:24:23.565Z,19.40
2022-12-01T14:26:52.694Z,18.90
2022-12-01T14:29:31.862Z,20.05
2022-12-01T14:32:23.478Z,18.90
2022-12-01T14:35:06.423Z,20.33
2022-12-01T14:37:40.457Z,20.48
2022-12-01T14:40:15.907Z,19.13
2022-12-01T14:43:00.124Z,22.80
2022-12-01T14:45:34.440Z,18.80
2022-12-01T14:48:05.073Z,16.83
2022-12-01T14:50:43.508Z,19.80
2022-12-01T14:53:22.653Z,18.58
2022-12-01T14:55:54.554Z,17.55
2022-12-01T14:58:26.431Z,17.17
2022-12-01T15:01:14.427Z,18.50
2022-12-01T15:03:44.328Z,17.50
2022-12-01T15:06:18.378Z,17.83
2022-12-01T15:09:03.954Z,19.67
2022-12-01T15:14:23.018Z,16.85
2022-12-01T15:16:52.845Z,12.13
2022-12-01T15:19:32.732Z,18.85
2022-12-01T15:22:04.813Z,17.30
2022-12-01T15:24:34.143Z,18.90
2022-12-01T15:27:04.234Z,20.73
2022-12-01T15:29:36.731Z,17.90
2022-12-01T15:32:08.950Z,18.48
2022-12-01T15:34:39.496Z,17.20
2022-12-01T15:37:12.212Z,17.73
2022-12-01T15:39:45.661Z,18.92
2022-12-01T15:42:23.472Z,16.85
2022-12-01T15:45:00.760Z,14.63
2022-12-01T15:47:36.927Z,16.02
2022-12-01T15:50:06.351Z,18.67
2022-12-01T15:52:42.734Z,15.32
2022-12-01T15:55:27.233Z,13.02
2022-12-01T15:57:55.634Z,22.90
2022-12-01T16:00:24.424Z,18.92
2022-12-01T16:02:55.905Z,17.33
2022-12-01T16:05:27.699Z,17.27
2022-12-01T16:10:44.279Z,24.17
2022-12-01T16:13:38.464Z,19.52
2022-12-01T16:16:36.761Z,22.55
2022-12-01T16:19:26.657Z,17.98
2022-12-01T16:22:02.481Z,19.15
2022-12-01T16:24:34.704Z,20.50
2022-12-01T16:27:05.305Z,17.15
2022-12-01T16:29:36.342Z,17.05
2022-12-01T16:32:21.643Z,13.48
2022-12-01T16:34:53.773Z,18.08
2022-12-01T16:37:22.685Z,16.92
2022-12-01T16:39:51.512Z,17.17
2022-12-01T16:42:22.339Z,13.77
2022-12-01T16:44:51.690Z,20.38
2022-12-01T16:47:23.124Z,19.27
2022-12-01T16:49:53.303Z,17.30
2022-12-01T16:55:26.603Z,18.10
2022-12-01T16:57:55.473Z,13.15
2022-12-01T17:00:23.911Z,16.50
2022-12-01T17:02:52.789Z,19.95
2022-12-01T17:05:22.681Z,14.20
2022-12-01T17:07:50.781Z,16.30
2022-12-01T17:10:19.050Z,20.38
2022-12-01T17:12:47.115Z,18.90
2022-12-01T17:15:15.389Z,20.75
2022-12-01T17:17:43.647Z,20.05
2022-12-01T17:20:12.720Z,21.15
2022-12-01T17:22:42.485Z,17.42
2022-12-01T17:25:11.265Z,21.25
2022-12-01T17:27:40.454Z,20.17
2022-12-01T17:30:09.550Z,23.55
2022-12-01T17:32:37.920Z,17.92
2022-12-01T17:35:06.602Z,20.95
2022-12-01T17:37:37.251Z,18.23
2022-12-01T17:40:09.129Z,17.85
2022-12-01T17:42:37.158Z,20.80
2022-12-01T17:45:06.036Z,20.35
2022-12-01T17:47:34.066Z,17.88
2022-12-01T17:50:02.271Z,21.98
2022-12-01T17:52:30.320Z,18.52
2022-12-01T17:54:58.353Z,22.77
2022-12-01T17:57:27.785Z,20.13
2022-12-01T17:59:55.856Z,18.45
2022-12-01T18:02:24.230Z,19.30
2022-12-01T18:04:52.620Z,19.02
2022-12-01T18:07:20.983Z,23.65
2022-12-01T18:09:49.126Z,20.75
2022-12-01T18:12:17.093Z,16.50
2022-12-01T18:14:46.458Z,20.70
2022-12-01T18:17:14.538Z,18.70
2022-12-01T18:19:42.558Z,23.67
2022-12-01T18:22:10.594Z,19.00
2022-12-01T18:24:38.736Z,19.17
2022-12-01T18:27:06.840Z,20.50
2022-12-01T18:29:35.276Z,20.48
2022-12-01T18:32:05.235Z,21.77
2022-12-01T18:34:33.982Z,30.42
2022-12-01T18:37:02.927Z,21.48
2022-12-01T18:39:31.028Z,23.85
2022-12-01T18:41:59.079Z,22.90
2022-12-01T18:44:27.150Z,23.05
2022-12-01T18:46:57.172Z,24.85
2022-12-01T18:49:26.724Z,19.85
2022-12-01T18:51:54.743Z,23.23
2022-12-01T18:54:22.873Z,20.42
2022-12-01T18:56:52.761Z,17.60
2022-12-01T18:59:20.852Z,22.35
2022-12-01T19:01:49.004Z,21.52
2022-12-01T19:04:17.786Z,23.77
2022-12-01T19:06:47.615Z,23.00
2022-12-01T19:09:17.181Z,22.00
2022-12-01T19:11:48.479Z,21.88
2022-12-01T19:14:18.536Z,24.15
2022-12-01T19:16:47.253Z,21.67
2022-12-01T19:19:15.432Z,26.50
2022-12-01T19:21:45.143Z,23.45
2022-12-01T19:24:14.745Z,21.58
2022-12-01T19:26:43.108Z,25.67
2022-12-01T19:29:11.276Z,22.40
2022-12-01T19:31:39.485Z,30.70
2022-12-01T19:34:07.865Z,23.40
2022-12-01T19:36:36.081Z,22.30
2022-12-01T19:39:07.701Z,21.85
2022-12-01T19:41:37.404Z,22.35
2022-12-01T19:44:05.720Z,21.10
2022-12-01T19:46:33.998Z,20.90
2022-12-01T19:49:03.585Z,21.65
2022-12-01T19:51:35.034Z,24.20
2022-12-01T19:54:04.260Z,26.73
2022-12-01T19:56:32.631Z,23.77
2022-12-01T19:59:02.344Z,17.17
2022-12-01T20:01:30.460Z,29.83
2022-12-01T20:03:58.540Z,25.35
2022-12-01T20:06:28.323Z,24.40
2022-12-01T20:08:57.496Z,23.77
2022-12-01T20:11:26.389Z,28.15
2022-12-01T20:13:54.987Z,26.05
2022-12-01T20:16:26.367Z,22.20
2022-12-01T20:18:55.285Z,22.20
2022-12-01T20:21:25.865Z,18.92
2022-12-01T20:23:58.360Z,22.30
2022-12-01T20:26:30.580Z,26.33
2022-12-01T20:29:02.412Z,25.52
2022-12-01T20:31:33.505Z,21.27
2022-12-01T20:34:03.948Z,25.67
2022-12-01T20:36:32.117Z,26.70
2022-12-01T20:39:00.192Z,27.02
2022-12-01T20:41:28.193Z,25.80
2022-12-01T20:43:56.405Z,27.23
2022-12-01T20:46:24.624Z,27.27
2022-12-01T20:48:54.440Z,26.70
2022-12-01T20:51:22.740Z,22.02
2022-12-01T20:54:19.664Z,22.88
2022-12-01T20:56:39.715Z,29.25
2022-12-01T20:59:08.570Z,28.73
2022-12-01T21:01:36.904Z,27.38
2022-12-01T21:04:06.718Z,22.02
2022-12-01T21:06:34.911Z,26.73
2022-12-01T21:09:04.136Z,29.50
2022-12-01T21:11:53.780Z,25.50
2022-12-01T21:14:28.859Z,26.48
2022-12-01T21:17:00.005Z,22.20
2022-12-01T21:19:39.232Z,23.08
2022-12-01T21:22:12.557Z,27.60
2022-12-01T21:24:43.703Z,23.17
2022-12-01T21:27:15.077Z,25.65
2022-12-01T21:29:46.008Z,18.52
2022-12-01T21:32:16.111Z,25.38
2022-12-01T21:34:46.595Z,25.77
2022-12-01T21:37:20.949Z,23.17
2022-12-01T21:39:51.120Z,20.88
2022-12-01T21:42:21.060Z,22.95
2022-12-01T21:44:49.923Z,25.90
2022-12-01T21:47:21.372Z,23.15
2022-12-01T21:49:53.144Z,20.98
2022-12-01T21:52:25.037Z,21.65
2022-12-01T21:54:53.393Z,21.25
2022-12-01T21:57:42.741Z,25.08
2022-12-01T22:00:28.592Z,23.88
2022-12-01T22:03:10.818Z,24.80
2022-12-01T22:05:41.701Z,22.63
2022-12-01T22:08:20.513Z,20.05
2022-12-01T22:10:55.988Z,27.48
2022-12-01T22:13:26.869Z,22.13
2022-12-01T22:15:55.451Z,23.00
2022-12-01T22:18:25.736Z,21.60
2022-12-01T22:20:55.516Z,24.17
2022-12-01T22:23:29.220Z,23.88
2022-12-01T22:25:57.236Z,23.83
2022-12-01T22:28:26.061Z,25.60
2022-12-01T22:30:54.484Z,24.17
2022-12-01T22:33:24.565Z,22.23
2022-12-01T22:35:54.954Z,17.10
2022-12-01T22:38:31.880Z,24.58
2022-12-01T22:41:03.537Z,28.30
2022-12-01T22:43:42.126Z,24.55
2022-12-01T22:46:28.008Z,21.52
2022-12-01T22:48:58.114Z,24.27
2022-12-01T22:51:30.654Z,22.33
2022-12-01T22:54:02.602Z,17.67
2022-12-01T22:56:38.916Z,20.83
2022-12-01T22:59:19.826Z,22.00
2022-12-01T23:01:53.369Z,22.42
2022-12-01T23:04:27.541Z,22.40
2022-12-01T23:07:01.609Z,15.57
2022-12-01T23:09:34.106Z,21.15
2022-12-01T23:12:15.927Z,20.90
2022-12-01T23:14:47.241Z,22.27
2022-12-01T23:17:19.321Z,22.60
2022-12-01T23:19:47.897Z,21.75
2022-12-01T23:22:17.782Z,24.70
2022-12-01T23:24:46.939Z,19.25
2022-12-01T23:27:17.909Z,20.50
2022-12-01T23:29:46.288Z,18.92
2022-12-01T23:32:14.466Z,21.50
2022-12-01T23:34:42.513Z,22.70
2022-12-01T23:37:27.452Z,22.02
2022-12-01T23:39:57.160Z,23.88
2022-12-01T23:42:25.213Z,21.10
2022-12-01T23:44:53.762Z,22.88
2022-12-01T23:47:25.746Z,22.40
2022-12-01T23:49:57.984Z,20.42
2022-12-01T23:52:34.710Z,23.73
2022-12-01T23:55:03.395Z,21.35
2022-12-01T23:57:32.080Z,23.05
